TNCB/BON METAR and TAF weather

Enter ICAO airport designator
Station Type Date Time Source
TNCB METAR 2022/06/28 11:55 UTC NOAA

TNCB 281155Z 13005KT 070V170 9999 FEW018 BKN020 BKN048 26/25 Q1015 RERA


Station Type Date Time Source
TNCB Decoded METAR 2022/06/28 11:55 UTC NOAA

Flamingo Airport, Bonaire, Netherlands Antilles (TNCB) 12-09N 068-17W 7M
Jun 28, 2022 - 07:55 AM EDT / 2022.06.28 1155 UTC
Wind: from the SE (130 degrees) at 6 MPH (5 KT) (direction variable):0
Visibility: greater than 7 mile(s):0
Sky conditions: mostly cloudy
Temperature: 78 F (26 C)
Dew Point: 77 F (25 C)
Relative Humidity: 94%
Pressure (altimeter): 29.97 in. Hg (1015 hPa)
ob: TNCB 281155Z 13005KT 070V170 9999 FEW018 BKN020 BKN048 26/25 Q1015 RERA
cycle: 12

Station Type Date Time Source
TNCB TAF 2022/06/28 12:27 UTC NOAA

TAF TAF TNCB 281117Z 2812/2918 09014KT 9999 SCT020 PROB40
TEMPO 2806/2816 10015G25KT 6000 SHRA SCT015CB PROB30
TEMPO 2903/2906 5000 SHRA SCT015CB
TEMPO 2906/2918 10015G25KT 3000 SHRA TSRA SCT012 BKN014CB
BECMG 2915/2918 05020KT

Example: see airport list